Terminal Aerodrome Forecast
Issued by NWS

Home | Current Version | Previous Version | Text Only | Print | Product List | Glossary On
Versions: 1 2 3 4 5 6 7 8 9 10 11 12 13 14 15 16 17 18 19 20
000
FTAK31 PAFA 231734
TAFAFA
TAF
PAFA 231734Z 2318/2424 00000KT P6SM SCT002 BKN006 BKN070
     FM232300 VRB05KT P6SM -SHRA BKN050 OVC090
     FM240900 VRB05KT P6SM VCSH SCT050 BKN090
     FM241200 VRB03KT 5SM BR SCT007 BKN050=

USA.gov is the U.S. government's official web portal to all federal, state and local government web resources and services.